sensor_id;sensor_type;location;lat;lon;timestamp;pressure;altitude;pressure_sealevel;temperature
15845;BMP180;50807;52.436;13.346;2023-09-19T00:00:10;100170.00;;;22.00
15845;BMP180;50807;52.436;13.346;2023-09-19T00:00:43;100165.00;;;22.10
15845;BMP180;50807;52.436;13.346;2023-09-19T00:01:23;100170.00;;;22.10
15845;BMP180;50807;52.436;13.346;2023-09-19T00:01:54;100170.00;;;22.10
15845;BMP180;50807;52.436;13.346;2023-09-19T00:02:27;100169.00;;;22.10
15845;BMP180;50807;52.436;13.346;2023-09-19T00:02:58;100173.00;;;22.00
15845;BMP180;50807;52.436;13.346;2023-09-19T00:03:30;100164.00;;;22.10
15845;BMP180;50807;52.436;13.346;2023-09-19T00:04:01;100175.00;;;22.10
15845;BMP180;50807;52.436;13.346;2023-09-19T00:04:42;100172.00;;;21.90
15845;BMP180;50807;52.436;13.346;2023-09-19T00:05:35;100164.00;;;21.90
15845;BMP180;50807;52.436;13.346;2023-09-19T00:06:09;100166.00;;;21.90
15845;BMP180;50807;52.436;13.346;2023-09-19T00:06:43;100168.00;;;21.90
15845;BMP180;50807;52.436;13.346;2023-09-19T00:07:15;100162.00;;;22.00
15845;BMP180;50807;52.436;13.346;2023-09-19T00:07:54;100161.00;;;21.90
15845;BMP180;50807;52.436;13.346;2023-09-19T00:08:28;100164.00;;;22.00
15845;BMP180;50807;52.436;13.346;2023-09-19T00:09:11;100162.00;;;21.80
15845;BMP180;50807;52.436;13.346;2023-09-19T00:09:45;100163.00;;;21.90
15845;BMP180;50807;52.436;13.346;2023-09-19T00:10:22;100157.00;;;21.90
15845;BMP180;50807;52.436;13.346;2023-09-19T00:10:56;100166.00;;;21.90
15845;BMP180;50807;52.436;13.346;2023-09-19T00:11:34;100160.00;;;21.90
15845;BMP180;50807;52.436;13.346;2023-09-19T00:12:17;100157.00;;;21.80
15845;BMP180;50807;52.436;13.346;2023-09-19T00:12:51;100158.00;;;21.90
15845;BMP180;50807;52.436;13.346;2023-09-19T00:13:25;100158.00;;;21.90
15845;BMP180;50807;52.436;13.346;2023-09-19T00:13:59;100159.00;;;21.90
15845;BMP180;50807;52.436;13.346;2023-09-19T00:14:30;100155.00;;;21.90
15845;BMP180;50807;52.436;13.346;2023-09-19T00:15:00;100158.00;;;22.00
15845;BMP180;50807;52.436;13.346;2023-09-19T00:15:38;100166.00;;;21.90
15845;BMP180;50807;52.436;13.346;2023-09-19T00:16:11;100169.00;;;21.90
15845;BMP180;50807;52.436;13.346;2023-09-19T00:16:42;100159.00;;;22.00
15845;BMP180;50807;52.436;13.346;2023-09-19T00:17:22;100148.00;;;21.80
15845;BMP180;50807;52.436;13.346;2023-09-19T00:17:53;100160.00;;;21.90
15845;BMP180;50807;52.436;13.346;2023-09-19T00:18:27;100155.00;;;21.90
15845;BMP180;50807;52.436;13.346;2023-09-19T00:18:59;100161.00;;;21.90
15845;BMP180;50807;52.436;13.346;2023-09-19T00:19:34;100157.00;;;22.00
15845;BMP180;50807;52.436;13.346;2023-09-19T00:20:11;100154.00;;;21.90
15845;BMP180;50807;52.436;13.346;2023-09-19T00:20:49;100150.00;;;21.90
15845;BMP180;50807;52.436;13.346;2023-09-19T00:21:24;100155.00;;;21.90
15845;BMP180;50807;52.436;13.346;2023-09-19T00:21:58;100155.00;;;21.90
15845;BMP180;50807;52.436;13.346;2023-09-19T00:22:28;100161.00;;;21.90
15845;BMP180;50807;52.436;13.346;2023-09-19T00:23:05;100156.00;;;21.90
15845;BMP180;50807;52.436;13.346;2023-09-19T00:23:39;100161.00;;;21.90
15845;BMP180;50807;52.436;13.346;2023-09-19T00:24:14;100156.00;;;21.90
15845;BMP180;50807;52.436;13.346;2023-09-19T00:24:51;100157.00;;;21.80
15845;BMP180;50807;52.436;13.346;2023-09-19T00:25:28;100153.00;;;21.80
15845;BMP180;50807;52.436;13.346;2023-09-19T00:26:04;100158.00;;;21.90
15845;BMP180;50807;52.436;13.346;2023-09-19T00:26:41;100154.00;;;21.80
15845;BMP180;50807;52.436;13.346;2023-09-19T00:27:14;100147.00;;;21.90
15845;BMP180;50807;52.436;13.346;2023-09-19T00:27:48;100151.00;;;21.80
15845;BMP180;50807;52.436;13.346;2023-09-19T00:28:46;100155.00;;;21.70
15845;BMP180;50807;52.436;13.346;2023-09-19T00:29:17;100153.00;;;21.80
15845;BMP180;50807;52.436;13.346;2023-09-19T00:29:53;100166.00;;;21.70
15845;BMP180;50807;52.436;13.346;2023-09-19T00:30:27;100150.00;;;21.80
15845;BMP180;50807;52.436;13.346;2023-09-19T00:30:57;100158.00;;;21.80
15845;BMP180;50807;52.436;13.346;2023-09-19T00:31:37;100149.00;;;21.70
15845;BMP180;50807;52.436;13.346;2023-09-19T00:32:17;100156.00;;;21.70
15845;BMP180;50807;52.436;13.346;2023-09-19T00:32:57;100162.00;;;21.60
15845;BMP180;50807;52.436;13.346;2023-09-19T00:33:35;100164.00;;;21.60
15845;BMP180;50807;52.436;13.346;2023-09-19T00:34:05;100157.00;;;21.70
15845;BMP180;50807;52.436;13.346;2023-09-19T00:34:40;100160.00;;;21.70
15845;BMP180;50807;52.436;13.346;2023-09-19T00:35:11;100158.00;;;21.70
15845;BMP180;50807;52.436;13.346;2023-09-19T00:35:48;100148.00;;;21.60
15845;BMP180;50807;52.436;13.346;2023-09-19T00:36:19;100157.00;;;21.70
15845;BMP180;50807;52.436;13.346;2023-09-19T00:36:57;100151.00;;;21.70
15845;BMP180;50807;52.436;13.346;2023-09-19T00:37:30;100151.00;;;21.70
15845;BMP180;50807;52.436;13.346;2023-09-19T00:38:03;100151.00;;;21.70
15845;BMP180;50807;52.436;13.346;2023-09-19T00:38:40;100151.00;;;21.60
15845;BMP180;50807;52.436;13.346;2023-09-19T00:39:21;100160.00;;;21.60
15845;BMP180;50807;52.436;13.346;2023-09-19T00:39:52;100152.00;;;21.70
15845;BMP180;50807;52.436;13.346;2023-09-19T00:40:29;100160.00;;;21.60
15845;BMP180;50807;52.436;13.346;2023-09-19T00:41:05;100166.00;;;21.70
15845;BMP180;50807;52.436;13.346;2023-09-19T00:41:44;100163.00;;;21.60
15845;BMP180;50807;52.436;13.346;2023-09-19T00:42:26;100168.00;;;21.50
15845;BMP180;50807;52.436;13.346;2023-09-19T00:43:04;100155.00;;;21.50
15845;BMP180;50807;52.436;13.346;2023-09-19T00:43:38;100159.00;;;21.60
15845;BMP180;50807;52.436;13.346;2023-09-19T00:44:10;100155.00;;;21.70
15845;BMP180;50807;52.436;13.346;2023-09-19T00:44:51;100168.00;;;21.50
15845;BMP180;50807;52.436;13.346;2023-09-19T00:45:31;100156.00;;;21.50
15845;BMP180;50807;52.436;13.346;2023-09-19T00:46:02;100164.00;;;21.60
15845;BMP180;50807;52.436;13.346;2023-09-19T00:46:36;100153.00;;;21.60
15845;BMP180;50807;52.436;13.346;2023-09-19T00:47:29;100153.00;;;21.40
15845;BMP180;50807;52.436;13.346;2023-09-19T00:48:02;100156.00;;;21.50
15845;BMP180;50807;52.436;13.346;2023-09-19T00:48:49;100161.00;;;21.40
15845;BMP180;50807;52.436;13.346;2023-09-19T00:49:20;100161.00;;;21.60
15845;BMP180;50807;52.436;13.346;2023-09-19T00:49:56;100161.00;;;21.50
15845;BMP180;50807;52.436;13.346;2023-09-19T00:50:48;100157.00;;;21.40
15845;BMP180;50807;52.436;13.346;2023-09-19T00:51:31;100158.00;;;21.40
15845;BMP180;50807;52.436;13.346;2023-09-19T00:52:12;100160.00;;;21.40
15845;BMP180;50807;52.436;13.346;2023-09-19T00:52:46;100165.00;;;21.40
15845;BMP180;50807;52.436;13.346;2023-09-19T00:53:26;100162.00;;;21.40
15845;BMP180;50807;52.436;13.346;2023-09-19T00:53:59;100158.00;;;21.50
15845;BMP180;50807;52.436;13.346;2023-09-19T00:54:30;100155.00;;;21.50
15845;BMP180;50807;52.436;13.346;2023-09-19T00:55:00;100161.00;;;21.50
15845;BMP180;50807;52.436;13.346;2023-09-19T00:55:32;100156.00;;;21.50
15845;BMP180;50807;52.436;13.346;2023-09-19T00:56:32;100157.00;;;21.30
15845;BMP180;50807;52.436;13.346;2023-09-19T00:57:04;100161.00;;;21.40
15845;BMP180;50807;52.436;13.346;2023-09-19T00:57:36;100159.00;;;21.50
15845;BMP180;50807;52.436;13.346;2023-09-19T00:58:27;100171.00;;;21.30
15845;BMP180;50807;52.436;13.346;2023-09-19T00:59:06;100172.00;;;21.40
15845;BMP180;50807;52.436;13.346;2023-09-19T00:59:36;100167.00;;;21.50
15845;BMP180;50807;52.436;13.346;2023-09-19T01:00:15;100166.00;;;21.40
15845;BMP180;50807;52.436;13.346;2023-09-19T01:00:48;100160.00;;;21.40
15845;BMP180;50807;52.436;13.346;2023-09-19T01:01:25;100171.00;;;21.40
15845;BMP180;50807;52.436;13.346;2023-09-19T01:01:56;100165.00;;;21.40
15845;BMP180;50807;52.436;13.346;2023-09-19T01:02:36;100168.00;;;21.40
15845;BMP180;50807;52.436;13.346;2023-09-19T01:03:07;100156.00;;;21.50
15845;BMP180;50807;52.436;13.346;2023-09-19T01:03:41;100171.00;;;21.40
15845;BMP180;50807;52.436;13.346;2023-09-19T01:04:12;100172.00;;;21.50
15845;BMP180;50807;52.436;13.346;2023-09-19T01:04:45;100170.00;;;21.50
15845;BMP180;50807;52.436;13.346;2023-09-19T01:05:25;100164.00;;;21.40
15845;BMP180;50807;52.436;13.346;2023-09-19T01:05:59;100164.00;;;21.40
15845;BMP180;50807;52.436;13.346;2023-09-19T01:06:31;100158.00;;;21.40
15845;BMP180;50807;52.436;13.346;2023-09-19T01:07:03;100164.00;;;21.50
15845;BMP180;50807;52.436;13.346;2023-09-19T01:07:37;100160.00;;;21.40
15845;BMP180;50807;52.436;13.346;2023-09-19T01:08:10;100168.00;;;21.50
15845;BMP180;50807;52.436;13.346;2023-09-19T01:08:49;100156.00;;;21.40
15845;BMP180;50807;52.436;13.346;2023-09-19T01:09:21;100161.00;;;21.40
15845;BMP180;50807;52.436;13.346;2023-09-19T01:09:52;100162.00;;;21.50
15845;BMP180;50807;52.436;13.346;2023-09-19T01:10:29;100163.00;;;21.40
15845;BMP180;50807;52.436;13.346;2023-09-19T01:11:16;100162.00;;;21.30
15845;BMP180;50807;52.436;13.346;2023-09-19T01:12:02;100164.00;;;21.30
15845;BMP180;50807;52.436;13.346;2023-09-19T01:12:47;100161.00;;;21.30
15845;BMP180;50807;52.436;13.346;2023-09-19T01:13:42;100162.00;;;21.20
15845;BMP180;50807;52.436;13.346;2023-09-19T01:14:38;100160.00;;;21.20
15845;BMP180;50807;52.436;13.346;2023-09-19T01:15:37;100156.00;;;21.10
15845;BMP180;50807;52.436;13.346;2023-09-19T01:16:28;100157.00;;;21.10
15845;BMP180;50807;52.436;13.346;2023-09-19T01:17:07;100158.00;;;21.20
15845;BMP180;50807;52.436;13.346;2023-09-19T01:17:46;100157.00;;;21.20
15845;BMP180;50807;52.436;13.346;2023-09-19T01:18:48;100169.00;;;21.10
15845;BMP180;50807;52.436;13.346;2023-09-19T01:20:16;100168.00;;;21.00
15845;BMP180;50807;52.436;13.346;2023-09-19T01:20:57;100168.00;;;21.00
15845;BMP180;50807;52.436;13.346;2023-09-19T01:21:46;100159.00;;;21.00
15845;BMP180;50807;52.436;13.346;2023-09-19T01:22:36;100169.00;;;21.00
15845;BMP180;50807;52.436;13.346;2023-09-19T01:23:17;100173.00;;;21.10
15845;BMP180;50807;52.436;13.346;2023-09-19T01:24:50;100167.00;;;20.90
15845;BMP180;50807;52.436;13.346;2023-09-19T01:26:06;100170.00;;;20.80
15845;BMP180;50807;52.436;13.346;2023-09-19T01:27:06;100170.00;;;20.90
15845;BMP180;50807;52.436;13.346;2023-09-19T01:28:32;100161.00;;;20.80
15845;BMP180;50807;52.436;13.346;2023-09-19T01:29:34;100165.00;;;20.80
15845;BMP180;50807;52.436;13.346;2023-09-19T01:30:17;100167.00;;;20.90
15845;BMP180;50807;52.436;13.346;2023-09-19T01:30:56;100163.00;;;20.90
15845;BMP180;50807;52.436;13.346;2023-09-19T01:31:37;100162.00;;;21.00
15845;BMP180;50807;52.436;13.346;2023-09-19T01:32:16;100159.00;;;21.10
15845;BMP180;50807;52.436;13.346;2023-09-19T01:32:50;100160.00;;;21.10
15845;BMP180;50807;52.436;13.346;2023-09-19T01:33:56;100160.00;;;21.10
15845;BMP180;50807;52.436;13.346;2023-09-19T01:34:44;100161.00;;;21.00
15845;BMP180;50807;52.436;13.346;2023-09-19T01:35:20;100155.00;;;21.20
15845;BMP180;50807;52.436;13.346;2023-09-19T01:35:54;100157.00;;;21.20
15845;BMP180;50807;52.436;13.346;2023-09-19T01:36:31;100158.00;;;21.20
15845;BMP180;50807;52.436;13.346;2023-09-19T01:37:10;100161.00;;;21.20
15845;BMP180;50807;52.436;13.346;2023-09-19T01:37:55;100163.00;;;21.20
15845;BMP180;50807;52.436;13.346;2023-09-19T01:38:27;100157.00;;;21.30
15845;BMP180;50807;52.436;13.346;2023-09-19T01:39:04;100157.00;;;21.30
15845;BMP180;50807;52.436;13.346;2023-09-19T01:39:42;100165.00;;;21.30
15845;BMP180;50807;52.436;13.346;2023-09-19T01:40:20;100163.00;;;21.30
15845;BMP180;50807;52.436;13.346;2023-09-19T01:41:11;100169.00;;;21.30
15845;BMP180;50807;52.436;13.346;2023-09-19T01:42:05;100174.00;;;21.20
15845;BMP180;50807;52.436;13.346;2023-09-19T01:42:57;100165.00;;;21.20
15845;BMP180;50807;52.436;13.346;2023-09-19T01:43:41;100170.00;;;21.20
15845;BMP180;50807;52.436;13.346;2023-09-19T01:44:49;100167.00;;;21.10
15845;BMP180;50807;52.436;13.346;2023-09-19T01:45:37;100172.00;;;21.10
15845;BMP180;50807;52.436;13.346;2023-09-19T01:46:21;100183.00;;;21.20
15845;BMP180;50807;52.436;13.346;2023-09-19T01:47:04;100173.00;;;21.20
15845;BMP180;50807;52.436;13.346;2023-09-19T01:47:52;100165.00;;;21.20
15845;BMP180;50807;52.436;13.346;2023-09-19T01:48:40;100160.00;;;21.20
15845;BMP180;50807;52.436;13.346;2023-09-19T01:49:34;100164.00;;;21.20
15845;BMP180;50807;52.436;13.346;2023-09-19T01:50:44;100157.00;;;21.10
15845;BMP180;50807;52.436;13.346;2023-09-19T01:51:37;100164.00;;;21.20
15845;BMP180;50807;52.436;13.346;2023-09-19T01:52:36;100166.00;;;21.10
15845;BMP180;50807;52.436;13.346;2023-09-19T01:53:26;100165.00;;;21.20
15845;BMP180;50807;52.436;13.346;2023-09-19T01:54:03;100166.00;;;21.30
15845;BMP180;50807;52.436;13.346;2023-09-19T01:54:57;100159.00;;;21.20
15845;BMP180;50807;52.436;13.346;2023-09-19T01:55:43;100172.00;;;21.20
15845;BMP180;50807;52.436;13.346;2023-09-19T01:56:30;100165.00;;;21.20
15845;BMP180;50807;52.436;13.346;2023-09-19T01:57:20;100162.00;;;21.20
15845;BMP180;50807;52.436;13.346;2023-09-19T01:58:06;100170.00;;;21.20
15845;BMP180;50807;52.436;13.346;2023-09-19T01:58:45;100167.00;;;21.30
15845;BMP180;50807;52.436;13.346;2023-09-19T01:59:29;100164.00;;;21.30
15845;BMP180;50807;52.436;13.346;2023-09-19T02:00:07;100168.00;;;21.30
15845;BMP180;50807;52.436;13.346;2023-09-19T02:00:46;100168.00;;;21.30
15845;BMP180;50807;52.436;13.346;2023-09-19T02:01:24;100171.00;;;21.40
15845;BMP180;50807;52.436;13.346;2023-09-19T02:01:58;100167.00;;;21.40
15845;BMP180;50807;52.436;13.346;2023-09-19T02:02:30;100167.00;;;21.40
15845;BMP180;50807;52.436;13.346;2023-09-19T02:03:02;100167.00;;;21.40
15845;BMP180;50807;52.436;13.346;2023-09-19T02:03:41;100171.00;;;21.40
15845;BMP180;50807;52.436;13.346;2023-09-19T02:04:15;100170.00;;;21.40
15845;BMP180;50807;52.436;13.346;2023-09-19T02:04:54;100177.00;;;21.40
15845;BMP180;50807;52.436;13.346;2023-09-19T02:05:31;100171.00;;;21.40
15845;BMP180;50807;52.436;13.346;2023-09-19T02:06:07;100171.00;;;21.40
15845;BMP180;50807;52.436;13.346;2023-09-19T02:06:42;100174.00;;;21.40
15845;BMP180;50807;52.436;13.346;2023-09-19T02:07:31;100181.00;;;21.30
15845;BMP180;50807;52.436;13.346;2023-09-19T02:08:05;100180.00;;;21.40
15845;BMP180;50807;52.436;13.346;2023-09-19T02:08:54;100177.00;;;21.30
15845;BMP180;50807;52.436;13.346;2023-09-19T02:09:28;100179.00;;;21.40
15845;BMP180;50807;52.436;13.346;2023-09-19T02:09:58;100181.00;;;21.40
15845;BMP180;50807;52.436;13.346;2023-09-19T02:10:30;100182.00;;;21.40
15845;BMP180;50807;52.436;13.346;2023-09-19T02:11:04;100166.00;;;21.40
15845;BMP180;50807;52.436;13.346;2023-09-19T02:11:39;100182.00;;;21.40
15845;BMP180;50807;52.436;13.346;2023-09-19T02:12:16;100177.00;;;21.40
15845;BMP180;50807;52.436;13.346;2023-09-19T02:12:56;100185.00;;;21.30
15845;BMP180;50807;52.436;13.346;2023-09-19T02:13:30;100180.00;;;21.40
15845;BMP180;50807;52.436;13.346;2023-09-19T02:14:02;100190.00;;;21.40
15845;BMP180;50807;52.436;13.346;2023-09-19T02:14:35;100191.00;;;21.40
15845;BMP180;50807;52.436;13.346;2023-09-19T02:15:11;100183.00;;;21.40
15845;BMP180;50807;52.436;13.346;2023-09-19T02:15:43;100191.00;;;21.40
15845;BMP180;50807;52.436;13.346;2023-09-19T02:16:18;100185.00;;;21.40
15845;BMP180;50807;52.436;13.346;2023-09-19T02:16:51;100186.00;;;21.40
15845;BMP180;50807;52.436;13.346;2023-09-19T02:17:31;100179.00;;;21.30
15845;BMP180;50807;52.436;13.346;2023-09-19T02:18:02;100181.00;;;21.40
15845;BMP180;50807;52.436;13.346;2023-09-19T02:18:40;100188.00;;;21.30
15845;BMP180;50807;52.436;13.346;2023-09-19T02:19:10;100187.00;;;21.40
15845;BMP180;50807;52.436;13.346;2023-09-19T02:19:53;100185.00;;;21.30
15845;BMP180;50807;52.436;13.346;2023-09-19T02:20:25;100185.00;;;21.30
15845;BMP180;50807;52.436;13.346;2023-09-19T02:21:00;100182.00;;;21.30
15845;BMP180;50807;52.436;13.346;2023-09-19T02:21:31;100183.00;;;21.30
15845;BMP180;50807;52.436;13.346;2023-09-19T02:22:03;100188.00;;;21.40
15845;BMP180;50807;52.436;13.346;2023-09-19T02:22:41;100192.00;;;21.30
15845;BMP180;50807;52.436;13.346;2023-09-19T02:23:13;100187.00;;;21.30
15845;BMP180;50807;52.436;13.346;2023-09-19T02:23:47;100197.00;;;21.30
15845;BMP180;50807;52.436;13.346;2023-09-19T02:24:24;100197.00;;;21.30
15845;BMP180;50807;52.436;13.346;2023-09-19T02:25:00;100195.00;;;21.30
15845;BMP180;50807;52.436;13.346;2023-09-19T02:25:39;100191.00;;;21.30
15845;BMP180;50807;52.436;13.346;2023-09-19T02:26:28;100179.00;;;21.20
15845;BMP180;50807;52.436;13.346;2023-09-19T02:27:05;100192.00;;;21.30
15845;BMP180;50807;52.436;13.346;2023-09-19T02:27:42;100202.00;;;21.20
15845;BMP180;50807;52.436;13.346;2023-09-19T02:28:16;100197.00;;;21.30
15845;BMP180;50807;52.436;13.346;2023-09-19T02:29:01;100196.00;;;21.30
15845;BMP180;50807;52.436;13.346;2023-09-19T02:29:41;100195.00;;;21.20
15845;BMP180;50807;52.436;13.346;2023-09-19T02:30:15;100198.00;;;21.20
15845;BMP180;50807;52.436;13.346;2023-09-19T02:30:56;100194.00;;;21.20
15845;BMP180;50807;52.436;13.346;2023-09-19T02:31:31;100177.00;;;21.20
15845;BMP180;50807;52.436;13.346;2023-09-19T02:32:02;100197.00;;;21.30
15845;BMP180;50807;52.436;13.346;2023-09-19T02:32:39;100200.00;;;21.20
15845;BMP180;50807;52.436;13.346;2023-09-19T02:33:10;100199.00;;;21.30
15845;BMP180;50807;52.436;13.346;2023-09-19T02:33:44;100197.00;;;21.30
15845;BMP180;50807;52.436;13.346;2023-09-19T02:34:29;100201.00;;;21.20
15845;BMP180;50807;52.436;13.346;2023-09-19T02:35:09;100192.00;;;21.20
15845;BMP180;50807;52.436;13.346;2023-09-19T02:35:41;100204.00;;;21.30
15845;BMP180;50807;52.436;13.346;2023-09-19T02:36:13;100190.00;;;21.30
15845;BMP180;50807;52.436;13.346;2023-09-19T02:36:50;100203.00;;;21.20
15845;BMP180;50807;52.436;13.346;2023-09-19T02:37:30;100198.00;;;21.20
15845;BMP180;50807;52.436;13.346;2023-09-19T02:38:04;100211.00;;;21.30
15845;BMP180;50807;52.436;13.346;2023-09-19T02:38:36;100201.00;;;21.20
15845;BMP180;50807;52.436;13.346;2023-09-19T02:39:11;100199.00;;;21.30
15845;BMP180;50807;52.436;13.346;2023-09-19T02:39:47;100203.00;;;21.20
15845;BMP180;50807;52.436;13.346;2023-09-19T02:40:22;100211.00;;;21.30
15845;BMP180;50807;52.436;13.346;2023-09-19T02:40:58;100210.00;;;21.20
15845;BMP180;50807;52.436;13.346;2023-09-19T02:41:29;100198.00;;;21.30
15845;BMP180;50807;52.436;13.346;2023-09-19T02:42:03;100208.00;;;21.20
15845;BMP180;50807;52.436;13.346;2023-09-19T02:42:38;100208.00;;;21.30
15845;BMP180;50807;52.436;13.346;2023-09-19T02:43:12;100205.00;;;21.30
15845;BMP180;50807;52.436;13.346;2023-09-19T02:43:45;100199.00;;;21.30
15845;BMP180;50807;52.436;13.346;2023-09-19T02:44:17;100205.00;;;21.30
15845;BMP180;50807;52.436;13.346;2023-09-19T02:44:53;100208.00;;;21.20
15845;BMP180;50807;52.436;13.346;2023-09-19T02:45:27;100211.00;;;21.20
15845;BMP180;50807;52.436;13.346;2023-09-19T02:45:59;100207.00;;;21.20
15845;BMP180;50807;52.436;13.346;2023-09-19T02:46:33;100205.00;;;21.30
15845;BMP180;50807;52.436;13.346;2023-09-19T02:47:10;100192.00;;;21.20
15845;BMP180;50807;52.436;13.346;2023-09-19T02:47:41;100207.00;;;21.30
15845;BMP180;50807;52.436;13.346;2023-09-19T02:48:20;100209.00;;;21.20
15845;BMP180;50807;52.436;13.346;2023-09-19T02:48:52;100207.00;;;21.30
15845;BMP180;50807;52.436;13.346;2023-09-19T02:49:32;100211.00;;;21.20
15845;BMP180;50807;52.436;13.346;2023-09-19T02:50:10;100207.00;;;21.20
15845;BMP180;50807;52.436;13.346;2023-09-19T02:50:44;100199.00;;;21.20
15845;BMP180;50807;52.436;13.346;2023-09-19T02:51:16;100217.00;;;21.20
15845;BMP180;50807;52.436;13.346;2023-09-19T02:51:56;100201.00;;;21.10
15845;BMP180;50807;52.436;13.346;2023-09-19T02:52:29;100209.00;;;21.20
15845;BMP180;50807;52.436;13.346;2023-09-19T02:53:00;100203.00;;;21.20
15845;BMP180;50807;52.436;13.346;2023-09-19T02:53:35;100216.00;;;21.20
15845;BMP180;50807;52.436;13.346;2023-09-19T02:54:09;100216.00;;;21.20
15845;BMP180;50807;52.436;13.346;2023-09-19T02:54:43;100219.00;;;21.20
15845;BMP180;50807;52.436;13.346;2023-09-19T02:55:18;100228.00;;;21.20
15845;BMP180;50807;52.436;13.346;2023-09-19T02:55:52;100227.00;;;21.20
15845;BMP180;50807;52.436;13.346;2023-09-19T02:56:24;100216.00;;;21.30
15845;BMP180;50807;52.436;13.346;2023-09-19T02:57:01;100231.00;;;21.20
15845;BMP180;50807;52.436;13.346;2023-09-19T02:57:37;100223.00;;;21.20
15845;BMP180;50807;52.436;13.346;2023-09-19T02:58:18;100222.00;;;21.10
15845;BMP180;50807;52.436;13.346;2023-09-19T02:58:55;100210.00;;;21.10
15845;BMP180;50807;52.436;13.346;2023-09-19T02:59:31;100225.00;;;21.20
15845;BMP180;50807;52.436;13.346;2023-09-19T03:00:04;100219.00;;;21.20
15845;BMP180;50807;52.436;13.346;2023-09-19T03:00:38;100228.00;;;21.20
15845;BMP180;50807;52.436;13.346;2023-09-19T03:01:14;100213.00;;;21.20
15845;BMP180;50807;52.436;13.346;2023-09-19T03:01:50;100224.00;;;21.20
15845;BMP180;50807;52.436;13.346;2023-09-19T03:02:24;100227.00;;;21.20
15845;BMP180;50807;52.436;13.346;2023-09-19T03:02:56;100229.00;;;21.20
15845;BMP180;50807;52.436;13.346;2023-09-19T03:03:27;100227.00;;;21.30
15845;BMP180;50807;52.436;13.346;2023-09-19T03:03:59;100228.00;;;21.20
15845;BMP180;50807;52.436;13.346;2023-09-19T03:04:36;100230.00;;;21.20
15845;BMP180;50807;52.436;13.346;2023-09-19T03:05:08;100225.00;;;21.20
15845;BMP180;50807;52.436;13.346;2023-09-19T03:05:41;100231.00;;;21.20
15845;BMP180;50807;52.436;13.346;2023-09-19T03:06:17;100226.00;;;21.20
15845;BMP180;50807;52.436;13.346;2023-09-19T03:06:50;100233.00;;;21.20
15845;BMP180;50807;52.436;13.346;2023-09-19T03:07:22;100217.00;;;21.20
15845;BMP180;50807;52.436;13.346;2023-09-19T03:07:55;100219.00;;;21.20
15845;BMP180;50807;52.436;13.346;2023-09-19T03:08:33;100223.00;;;21.20
15845;BMP180;50807;52.436;13.346;2023-09-19T03:09:06;100231.00;;;21.20
15845;BMP180;50807;52.436;13.346;2023-09-19T03:09:42;100239.00;;;21.20
15845;BMP180;50807;52.436;13.346;2023-09-19T03:10:16;100226.00;;;21.20
15845;BMP180;50807;52.436;13.346;2023-09-19T03:10:53;100227.00;;;21.20
15845;BMP180;50807;52.436;13.346;2023-09-19T03:11:30;100230.00;;;21.10
15845;BMP180;50807;52.436;13.346;2023-09-19T03:12:10;100225.00;;;21.10
15845;BMP180;50807;52.436;13.346;2023-09-19T03:12:41;100228.00;;;21.20
15845;BMP180;50807;52.436;13.346;2023-09-19T03:13:16;100224.00;;;21.20
15845;BMP180;50807;52.436;13.346;2023-09-19T03:13:53;100222.00;;;21.10
15845;BMP180;50807;52.436;13.346;2023-09-19T03:14:27;100236.00;;;21.10
15845;BMP180;50807;52.436;13.346;2023-09-19T03:15:01;100233.00;;;21.20
15845;BMP180;50807;52.436;13.346;2023-09-19T03:15:34;100233.00;;;21.20
15845;BMP180;50807;52.436;13.346;2023-09-19T03:16:08;100228.00;;;21.10
15845;BMP180;50807;52.436;13.346;2023-09-19T03:16:41;100221.00;;;21.10
15845;BMP180;50807;52.436;13.346;2023-09-19T03:17:12;100234.00;;;21.20
15845;BMP180;50807;52.436;13.346;2023-09-19T03:17:47;100228.00;;;21.10
15845;BMP180;50807;52.436;13.346;2023-09-19T03:18:18;100231.00;;;21.20
15845;BMP180;50807;52.436;13.346;2023-09-19T03:18:59;100238.00;;;21.10
15845;BMP180;50807;52.436;13.346;2023-09-19T03:19:31;100235.00;;;21.20
15845;BMP180;50807;52.436;13.346;2023-09-19T03:20:05;100241.00;;;21.20
15845;BMP180;50807;52.436;13.346;2023-09-19T03:20:42;100237.00;;;21.10
15845;BMP180;50807;52.436;13.346;2023-09-19T03:21:18;100238.00;;;21.10
15845;BMP180;50807;52.436;13.346;2023-09-19T03:21:55;100238.00;;;21.10
15845;BMP180;50807;52.436;13.346;2023-09-19T03:22:30;100238.00;;;21.10
15845;BMP180;50807;52.436;13.346;2023-09-19T03:23:09;100237.00;;;21.20
15845;BMP180;50807;52.436;13.346;2023-09-19T03:23:41;100243.00;;;21.20
15845;BMP180;50807;52.436;13.346;2023-09-19T03:24:28;100236.00;;;21.00
15845;BMP180;50807;52.436;13.346;2023-09-19T03:24:59;100240.00;;;21.10
15845;BMP180;50807;52.436;13.346;2023-09-19T03:25:40;100240.00;;;21.10
15845;BMP180;50807;52.436;13.346;2023-09-19T03:26:12;100241.00;;;21.20
15845;BMP180;50807;52.436;13.346;2023-09-19T03:26:46;100236.00;;;21.20
15845;BMP180;50807;52.436;13.346;2023-09-19T03:27:34;100252.00;;;21.00
15845;BMP180;50807;52.436;13.346;2023-09-19T03:28:08;100232.00;;;21.10
15845;BMP180;50807;52.436;13.346;2023-09-19T03:28:43;100242.00;;;21.10
15845;BMP180;50807;52.436;13.346;2023-09-19T03:29:19;100244.00;;;21.10
15845;BMP180;50807;52.436;13.346;2023-09-19T03:29:53;100241.00;;;21.10
15845;BMP180;50807;52.436;13.346;2023-09-19T03:30:24;100246.00;;;21.20
15845;BMP180;50807;52.436;13.346;2023-09-19T03:31:02;100239.00;;;21.10
15845;BMP180;50807;52.436;13.346;2023-09-19T03:31:37;100234.00;;;21.10
15845;BMP180;50807;52.436;13.346;2023-09-19T03:32:19;100242.00;;;21.00
15845;BMP180;50807;52.436;13.346;2023-09-19T03:32:52;100243.00;;;21.10
15845;BMP180;50807;52.436;13.346;2023-09-19T03:33:26;100243.00;;;21.10